sensor_id;sensor_type;location;lat;lon;timestamp;P1;durP1;ratioP1;P2;durP2;ratioP2
40953;SDS011;26686;50.130;8.710;2023-04-21T00:00:52;23.77;;;21.58;;
40953;SDS011;26686;50.130;8.710;2023-04-21T00:05:54;23.15;;;21.05;;
40953;SDS011;26686;50.130;8.710;2023-04-21T00:10:56;22.17;;;20.15;;
40953;SDS011;26686;50.130;8.710;2023-04-21T00:15:57;22.48;;;20.38;;
40953;SDS011;26686;50.130;8.710;2023-04-21T00:20:59;22.13;;;19.92;;
40953;SDS011;26686;50.130;8.710;2023-04-21T00:26:00;23.58;;;21.38;;
40953;SDS011;26686;50.130;8.710;2023-04-21T00:31:03;21.65;;;19.55;;
40953;SDS011;26686;50.130;8.710;2023-04-21T00:36:04;22.88;;;20.83;;
40953;SDS011;26686;50.130;8.710;2023-04-21T00:41:06;22.17;;;20.17;;
40953;SDS011;26686;50.130;8.710;2023-04-21T00:46:07;23.70;;;21.30;;
40953;SDS011;26686;50.130;8.710;2023-04-21T00:51:08;24.73;;;22.33;;
40953;SDS011;26686;50.130;8.710;2023-04-21T00:56:10;23.73;;;21.50;;
40953;SDS011;26686;50.130;8.710;2023-04-21T01:01:12;25.10;;;22.67;;
40953;SDS011;26686;50.130;8.710;2023-04-21T01:06:13;23.58;;;21.33;;
40953;SDS011;26686;50.130;8.710;2023-04-21T01:11:15;23.90;;;21.70;;
40953;SDS011;26686;50.130;8.710;2023-04-21T01:16:16;25.30;;;22.88;;
40953;SDS011;26686;50.130;8.710;2023-04-21T01:21:19;25.65;;;23.15;;
40953;SDS011;26686;50.130;8.710;2023-04-21T01:26:21;24.13;;;21.83;;
40953;SDS011;26686;50.130;8.710;2023-04-21T01:31:23;24.70;;;22.27;;
40953;SDS011;26686;50.130;8.710;2023-04-21T01:36:25;25.10;;;22.65;;
40953;SDS011;26686;50.130;8.710;2023-04-21T01:41:26;25.25;;;22.63;;
40953;SDS011;26686;50.130;8.710;2023-04-21T01:46:28;25.25;;;22.75;;
40953;SDS011;26686;50.130;8.710;2023-04-21T01:51:29;23.75;;;21.40;;
40953;SDS011;26686;50.130;8.710;2023-04-21T01:56:31;25.98;;;23.48;;
40953;SDS011;26686;50.130;8.710;2023-04-21T02:01:33;24.63;;;22.25;;
40953;SDS011;26686;50.130;8.710;2023-04-21T02:06:36;25.92;;;23.33;;
40953;SDS011;26686;50.130;8.710;2023-04-21T02:11:37;26.85;;;24.15;;
40953;SDS011;26686;50.130;8.710;2023-04-21T02:16:39;25.83;;;23.08;;
40953;SDS011;26686;50.130;8.710;2023-04-21T02:21:41;25.30;;;22.75;;
40953;SDS011;26686;50.130;8.710;2023-04-21T02:26:42;27.20;;;24.42;;
40953;SDS011;26686;50.130;8.710;2023-04-21T02:31:44;26.30;;;23.60;;
40953;SDS011;26686;50.130;8.710;2023-04-21T02:37:01;26.25;;;23.73;;
40953;SDS011;26686;50.130;8.710;2023-04-21T02:42:02;26.48;;;23.83;;
40953;SDS011;26686;50.130;8.710;2023-04-21T02:47:04;26.80;;;24.08;;
40953;SDS011;26686;50.130;8.710;2023-04-21T02:52:05;26.83;;;24.15;;
40953;SDS011;26686;50.130;8.710;2023-04-21T02:57:06;26.60;;;23.92;;
40953;SDS011;26686;50.130;8.710;2023-04-21T03:02:08;27.27;;;24.42;;
40953;SDS011;26686;50.130;8.710;2023-04-21T03:07:12;26.80;;;23.92;;
40953;SDS011;26686;50.130;8.710;2023-04-21T03:12:14;26.10;;;23.35;;
40953;SDS011;26686;50.130;8.710;2023-04-21T03:17:16;24.77;;;22.20;;
40953;SDS011;26686;50.130;8.710;2023-04-21T03:22:17;25.48;;;22.95;;
40953;SDS011;26686;50.130;8.710;2023-04-21T03:27:18;23.10;;;20.70;;
40953;SDS011;26686;50.130;8.710;2023-04-21T03:32:20;24.95;;;22.55;;
40953;SDS011;26686;50.130;8.710;2023-04-21T03:37:21;23.42;;;21.05;;
40953;SDS011;26686;50.130;8.710;2023-04-21T03:42:23;23.08;;;20.77;;
40953;SDS011;26686;50.130;8.710;2023-04-21T03:47:25;21.75;;;19.75;;
40953;SDS011;26686;50.130;8.710;2023-04-21T03:52:27;22.27;;;20.08;;
40953;SDS011;26686;50.130;8.710;2023-04-21T03:57:28;21.08;;;19.08;;
40953;SDS011;26686;50.130;8.710;2023-04-21T04:02:30;21.77;;;19.58;;
40953;SDS011;26686;50.130;8.710;2023-04-21T04:07:31;22.88;;;20.52;;
40953;SDS011;26686;50.130;8.710;2023-04-21T04:12:33;21.98;;;19.77;;
40953;SDS011;26686;50.130;8.710;2023-04-21T04:17:34;21.85;;;19.65;;
40953;SDS011;26686;50.130;8.710;2023-04-21T04:22:36;21.45;;;19.45;;
40953;SDS011;26686;50.130;8.710;2023-04-21T04:27:37;21.02;;;19.02;;
40953;SDS011;26686;50.130;8.710;2023-04-21T04:32:39;22.45;;;20.20;;
40953;SDS011;26686;50.130;8.710;2023-04-21T04:37:41;21.25;;;19.25;;
40953;SDS011;26686;50.130;8.710;2023-04-21T04:42:43;21.75;;;19.60;;
40953;SDS011;26686;50.130;8.710;2023-04-21T04:47:47;21.23;;;19.17;;
40953;SDS011;26686;50.130;8.710;2023-04-21T04:52:50;22.63;;;20.33;;
40953;SDS011;26686;50.130;8.710;2023-04-21T04:57:51;23.40;;;21.00;;
40953;SDS011;26686;50.130;8.710;2023-04-21T05:02:53;24.08;;;21.67;;
40953;SDS011;26686;50.130;8.710;2023-04-21T05:07:55;25.00;;;22.50;;
40953;SDS011;26686;50.130;8.710;2023-04-21T05:12:57;25.20;;;22.67;;
40953;SDS011;26686;50.130;8.710;2023-04-21T05:17:58;25.67;;;23.10;;
40953;SDS011;26686;50.130;8.710;2023-04-21T05:23:00;24.70;;;22.13;;
40953;SDS011;26686;50.130;8.710;2023-04-21T05:28:02;27.55;;;24.73;;
40953;SDS011;26686;50.130;8.710;2023-04-21T05:33:03;25.30;;;22.70;;
40953;SDS011;26686;50.130;8.710;2023-04-21T05:38:05;26.17;;;23.48;;
40953;SDS011;26686;50.130;8.710;2023-04-21T05:43:06;24.63;;;22.02;;
40953;SDS011;26686;50.130;8.710;2023-04-21T05:48:08;24.95;;;22.35;;
40953;SDS011;26686;50.130;8.710;2023-04-21T05:53:13;24.05;;;21.40;;
40953;SDS011;26686;50.130;8.710;2023-04-21T05:58:14;24.70;;;22.30;;
40953;SDS011;26686;50.130;8.710;2023-04-21T06:03:16;24.88;;;22.35;;
40953;SDS011;26686;50.130;8.710;2023-04-21T06:08:17;23.30;;;20.80;;
40953;SDS011;26686;50.130;8.710;2023-04-21T06:13:19;23.15;;;20.65;;
40953;SDS011;26686;50.130;8.710;2023-04-21T06:18:20;25.90;;;23.17;;
40953;SDS011;26686;50.130;8.710;2023-04-21T06:23:22;25.73;;;23.02;;
40953;SDS011;26686;50.130;8.710;2023-04-21T06:28:23;23.45;;;21.05;;
40953;SDS011;26686;50.130;8.710;2023-04-21T06:33:25;23.45;;;21.02;;
40953;SDS011;26686;50.130;8.710;2023-04-21T06:38:27;22.98;;;20.58;;
40953;SDS011;26686;50.130;8.710;2023-04-21T06:43:28;25.63;;;22.92;;
40953;SDS011;26686;50.130;8.710;2023-04-21T06:48:30;29.20;;;22.13;;
40953;SDS011;26686;50.130;8.710;2023-04-21T06:53:31;22.55;;;20.27;;
40953;SDS011;26686;50.130;8.710;2023-04-21T06:58:33;23.05;;;20.75;;
40953;SDS011;26686;50.130;8.710;2023-04-21T07:03:34;23.95;;;21.00;;
40953;SDS011;26686;50.130;8.710;2023-04-21T07:08:46;25.15;;;22.55;;
40953;SDS011;26686;50.130;8.710;2023-04-21T07:13:47;21.55;;;19.35;;
40953;SDS011;26686;50.130;8.710;2023-04-21T07:18:49;20.45;;;18.42;;
40953;SDS011;26686;50.130;8.710;2023-04-21T07:23:51;21.67;;;19.48;;
40953;SDS011;26686;50.130;8.710;2023-04-21T07:28:53;21.17;;;18.95;;
40953;SDS011;26686;50.130;8.710;2023-04-21T07:33:55;22.35;;;20.08;;
40953;SDS011;26686;50.130;8.710;2023-04-21T07:38:57;21.27;;;18.98;;
40953;SDS011;26686;50.130;8.710;2023-04-21T07:43:59;21.88;;;19.45;;
40953;SDS011;26686;50.130;8.710;2023-04-21T07:49:00;23.05;;;20.70;;
40953;SDS011;26686;50.130;8.710;2023-04-21T07:54:04;22.45;;;19.15;;
40953;SDS011;26686;50.130;8.710;2023-04-21T07:59:06;22.33;;;20.05;;
40953;SDS011;26686;50.130;8.710;2023-04-21T08:04:07;21.42;;;19.13;;
40953;SDS011;26686;50.130;8.710;2023-04-21T08:09:09;21.10;;;18.98;;
40953;SDS011;26686;50.130;8.710;2023-04-21T08:14:11;20.20;;;18.17;;
40953;SDS011;26686;50.130;8.710;2023-04-21T08:19:15;21.77;;;19.65;;
40953;SDS011;26686;50.130;8.710;2023-04-21T08:24:17;20.42;;;18.33;;
40953;SDS011;26686;50.130;8.710;2023-04-21T08:29:19;21.05;;;18.88;;
40953;SDS011;26686;50.130;8.710;2023-04-21T08:34:21;21.25;;;18.90;;
40953;SDS011;26686;50.130;8.710;2023-04-21T08:39:25;19.77;;;17.77;;
40953;SDS011;26686;50.130;8.710;2023-04-21T08:44:27;21.67;;;19.58;;
40953;SDS011;26686;50.130;8.710;2023-04-21T08:49:29;20.90;;;18.95;;
40953;SDS011;26686;50.130;8.710;2023-04-21T08:54:32;21.52;;;19.42;;
40953;SDS011;26686;50.130;8.710;2023-04-21T08:59:36;22.30;;;19.90;;
40953;SDS011;26686;50.130;8.710;2023-04-21T09:04:41;22.88;;;19.80;;
40953;SDS011;26686;50.130;8.710;2023-04-21T09:09:54;22.33;;;19.95;;
40953;SDS011;26686;50.130;8.710;2023-04-21T09:14:57;20.10;;;17.48;;
40953;SDS011;26686;50.130;8.710;2023-04-21T09:20:15;20.95;;;18.85;;
40953;SDS011;26686;50.130;8.710;2023-04-21T09:25:20;20.05;;;18.13;;
40953;SDS011;26686;50.130;8.710;2023-04-21T09:30:22;20.95;;;18.77;;
40953;SDS011;26686;50.130;8.710;2023-04-21T09:35:27;20.38;;;18.30;;
40953;SDS011;26686;50.130;8.710;2023-04-21T09:40:34;19.55;;;17.42;;
40953;SDS011;26686;50.130;8.710;2023-04-21T09:45:35;20.48;;;18.55;;
40953;SDS011;26686;50.130;8.710;2023-04-21T09:50:41;21.05;;;17.88;;
40953;SDS011;26686;50.130;8.710;2023-04-21T09:56:02;18.98;;;17.08;;
40953;SDS011;26686;50.130;8.710;2023-04-21T10:01:04;18.67;;;16.70;;
40953;SDS011;26686;50.130;8.710;2023-04-21T10:06:07;19.02;;;17.17;;
40953;SDS011;26686;50.130;8.710;2023-04-21T10:11:09;19.55;;;17.52;;
40953;SDS011;26686;50.130;8.710;2023-04-21T10:16:11;18.02;;;16.13;;
40953;SDS011;26686;50.130;8.710;2023-04-21T10:21:18;17.33;;;15.57;;
40953;SDS011;26686;50.130;8.710;2023-04-21T10:26:23;17.90;;;16.10;;
40953;SDS011;26686;50.130;8.710;2023-04-21T10:31:36;17.52;;;15.73;;
40953;SDS011;26686;50.130;8.710;2023-04-21T10:41:57;16.90;;;15.02;;
40953;SDS011;26686;50.130;8.710;2023-04-21T10:47:26;17.20;;;15.57;;
40953;SDS011;26686;50.130;8.710;2023-04-21T10:52:32;16.63;;;15.00;;
40953;SDS011;26686;50.130;8.710;2023-04-21T10:57:34;16.13;;;14.48;;
40953;SDS011;26686;50.130;8.710;2023-04-21T11:02:37;16.90;;;15.30;;
40953;SDS011;26686;50.130;8.710;2023-04-21T11:07:42;18.13;;;15.98;;
40953;SDS011;26686;50.130;8.710;2023-04-21T11:12:44;17.25;;;15.55;;
40953;SDS011;26686;50.130;8.710;2023-04-21T11:17:45;17.60;;;15.73;;
40953;SDS011;26686;50.130;8.710;2023-04-21T11:22:50;18.02;;;16.20;;
40953;SDS011;26686;50.130;8.710;2023-04-21T11:27:53;16.00;;;14.45;;
40953;SDS011;26686;50.130;8.710;2023-04-21T11:32:57;15.52;;;13.93;;
40953;SDS011;26686;50.130;8.710;2023-04-21T11:38:03;16.35;;;14.75;;
40953;SDS011;26686;50.130;8.710;2023-04-21T11:43:05;15.90;;;14.40;;
40953;SDS011;26686;50.130;8.710;2023-04-21T11:48:16;15.05;;;13.55;;
40953;SDS011;26686;50.130;8.710;2023-04-21T11:53:18;13.57;;;12.27;;
40953;SDS011;26686;50.130;8.710;2023-04-21T11:58:19;14.50;;;13.20;;
40953;SDS011;26686;50.130;8.710;2023-04-21T12:03:22;13.60;;;12.40;;
40953;SDS011;26686;50.130;8.710;2023-04-21T12:08:27;14.07;;;12.75;;
40953;SDS011;26686;50.130;8.710;2023-04-21T12:13:29;15.57;;;13.25;;
40953;SDS011;26686;50.130;8.710;2023-04-21T12:18:31;13.65;;;12.30;;
40953;SDS011;26686;50.130;8.710;2023-04-21T12:23:37;13.50;;;12.23;;
40953;SDS011;26686;50.130;8.710;2023-04-21T12:28:39;13.05;;;11.65;;
40953;SDS011;26686;50.130;8.710;2023-04-21T12:33:40;13.05;;;11.77;;
40953;SDS011;26686;50.130;8.710;2023-04-21T12:38:42;12.75;;;11.18;;
40953;SDS011;26686;50.130;8.710;2023-04-21T12:43:44;13.57;;;12.27;;
40953;SDS011;26686;50.130;8.710;2023-04-21T12:48:46;14.30;;;12.48;;
40953;SDS011;26686;50.130;8.710;2023-04-21T12:53:49;14.10;;;12.38;;
40953;SDS011;26686;50.130;8.710;2023-04-21T12:58:51;14.85;;;13.18;;
40953;SDS011;26686;50.130;8.710;2023-04-21T13:03:52;12.02;;;10.82;;
40953;SDS011;26686;50.130;8.710;2023-04-21T13:08:54;11.77;;;10.60;;
40953;SDS011;26686;50.130;8.710;2023-04-21T13:13:57;11.73;;;10.73;;
40953;SDS011;26686;50.130;8.710;2023-04-21T13:18:58;10.10;;;9.25;;
40953;SDS011;26686;50.130;8.710;2023-04-21T13:24:00;10.32;;;9.43;;
40953;SDS011;26686;50.130;8.710;2023-04-21T13:29:03;9.45;;;8.52;;
40953;SDS011;26686;50.130;8.710;2023-04-21T13:34:04;9.50;;;8.75;;
40953;SDS011;26686;50.130;8.710;2023-04-21T13:39:08;9.13;;;8.23;;
40953;SDS011;26686;50.130;8.710;2023-04-21T13:44:11;8.38;;;7.68;;
40953;SDS011;26686;50.130;8.710;2023-04-21T13:49:12;8.10;;;7.25;;
40953;SDS011;26686;50.130;8.710;2023-04-21T13:54:14;9.27;;;8.48;;
40953;SDS011;26686;50.130;8.710;2023-04-21T13:59:16;8.15;;;7.35;;
40953;SDS011;26686;50.130;8.710;2023-04-21T14:04:18;9.25;;;8.30;;
40953;SDS011;26686;50.130;8.710;2023-04-21T14:09:21;8.50;;;7.70;;
40953;SDS011;26686;50.130;8.710;2023-04-21T14:14:23;8.93;;;8.13;;
40953;SDS011;26686;50.130;8.710;2023-04-21T14:19:39;7.75;;;6.90;;
40953;SDS011;26686;50.130;8.710;2023-04-21T14:24:40;8.73;;;7.90;;
40953;SDS011;26686;50.130;8.710;2023-04-21T14:29:42;8.65;;;7.85;;
40953;SDS011;26686;50.130;8.710;2023-04-21T14:34:44;8.10;;;7.38;;
40953;SDS011;26686;50.130;8.710;2023-04-21T14:39:45;8.73;;;7.93;;
40953;SDS011;26686;50.130;8.710;2023-04-21T14:44:47;7.63;;;6.25;;
40953;SDS011;26686;50.130;8.710;2023-04-21T14:49:48;7.38;;;6.68;;
40953;SDS011;26686;50.130;8.710;2023-04-21T14:54:55;7.85;;;7.05;;
40953;SDS011;26686;50.130;8.710;2023-04-21T14:59:57;7.82;;;7.13;;
40953;SDS011;26686;50.130;8.710;2023-04-21T15:04:58;7.53;;;6.93;;
40953;SDS011;26686;50.130;8.710;2023-04-21T15:10:00;7.80;;;7.00;;
40953;SDS011;26686;50.130;8.710;2023-04-21T15:15:02;7.45;;;6.75;;
40953;SDS011;26686;50.130;8.710;2023-04-21T15:20:04;8.07;;;7.40;;
40953;SDS011;26686;50.130;8.710;2023-04-21T15:25:06;8.15;;;7.35;;
40953;SDS011;26686;50.130;8.710;2023-04-21T15:30:08;7.95;;;7.05;;
40953;SDS011;26686;50.130;8.710;2023-04-21T15:35:10;8.40;;;6.93;;
40953;SDS011;26686;50.130;8.710;2023-04-21T15:40:12;8.15;;;7.30;;
40953;SDS011;26686;50.130;8.710;2023-04-21T15:45:13;7.15;;;6.45;;
40953;SDS011;26686;50.130;8.710;2023-04-21T15:50:18;8.40;;;7.60;;
40953;SDS011;26686;50.130;8.710;2023-04-21T15:55:19;9.05;;;7.05;;
40953;SDS011;26686;50.130;8.710;2023-04-21T16:00:21;6.68;;;6.07;;
40953;SDS011;26686;50.130;8.710;2023-04-21T16:05:23;10.05;;;7.22;;
40953;SDS011;26686;50.130;8.710;2023-04-21T16:10:29;7.25;;;6.57;;
40953;SDS011;26686;50.130;8.710;2023-04-21T16:15:32;7.13;;;6.43;;
40953;SDS011;26686;50.130;8.710;2023-04-21T16:20:34;7.13;;;6.47;;
40953;SDS011;26686;50.130;8.710;2023-04-21T16:25:37;7.00;;;6.40;;
40953;SDS011;26686;50.130;8.710;2023-04-21T16:30:38;6.50;;;5.93;;
40953;SDS011;26686;50.130;8.710;2023-04-21T16:35:43;6.57;;;6.00;;
40953;SDS011;26686;50.130;8.710;2023-04-21T16:40:45;6.85;;;5.90;;
40953;SDS011;26686;50.130;8.710;2023-04-21T16:45:47;9.23;;;6.63;;
40953;SDS011;26686;50.130;8.710;2023-04-21T16:50:48;6.70;;;6.10;;
40953;SDS011;26686;50.130;8.710;2023-04-21T16:55:50;6.65;;;6.07;;
40953;SDS011;26686;50.130;8.710;2023-04-21T17:00:51;6.15;;;5.65;;
40953;SDS011;26686;50.130;8.710;2023-04-21T17:05:53;6.20;;;5.60;;
40953;SDS011;26686;50.130;8.710;2023-04-21T17:10:55;6.32;;;5.72;;
40953;SDS011;26686;50.130;8.710;2023-04-21T17:15:57;6.35;;;5.03;;
40953;SDS011;26686;50.130;8.710;2023-04-21T17:21:00;6.53;;;4.88;;
40953;SDS011;26686;50.130;8.710;2023-04-21T17:26:02;6.00;;;5.07;;
40953;SDS011;26686;50.130;8.710;2023-04-21T17:31:05;4.63;;;4.22;;
40953;SDS011;26686;50.130;8.710;2023-04-21T17:36:15;5.40;;;4.90;;
40953;SDS011;26686;50.130;8.710;2023-04-21T17:41:17;5.47;;;4.53;;
40953;SDS011;26686;50.130;8.710;2023-04-21T17:46:18;4.80;;;4.40;;
40953;SDS011;26686;50.130;8.710;2023-04-21T17:51:24;4.70;;;4.25;;
40953;SDS011;26686;50.130;8.710;2023-04-21T17:56:27;5.70;;;4.50;;
40953;SDS011;26686;50.130;8.710;2023-04-21T18:01:30;7.13;;;5.00;;
40953;SDS011;26686;50.130;8.710;2023-04-21T18:06:32;4.78;;;4.28;;
40953;SDS011;26686;50.130;8.710;2023-04-21T18:11:36;4.35;;;2.50;;
40953;SDS011;26686;50.130;8.710;2023-04-21T18:16:38;4.60;;;2.55;;
40953;SDS011;26686;50.130;8.710;2023-04-21T18:21:40;2.38;;;1.92;;
40953;SDS011;26686;50.130;8.710;2023-04-21T18:26:42;1.88;;;1.52;;
40953;SDS011;26686;50.130;8.710;2023-04-21T18:31:43;2.50;;;1.58;;
40953;SDS011;26686;50.130;8.710;2023-04-21T18:36:45;3.78;;;1.40;;
40953;SDS011;26686;50.130;8.710;2023-04-21T18:41:48;2.00;;;1.40;;
40953;SDS011;26686;50.130;8.710;2023-04-21T18:46:50;1.90;;;1.60;;
40953;SDS011;26686;50.130;8.710;2023-04-21T18:51:54;3.65;;;2.17;;
40953;SDS011;26686;50.130;8.710;2023-04-21T18:56:55;2.50;;;2.08;;
40953;SDS011;26686;50.130;8.710;2023-04-21T19:01:58;3.08;;;2.63;;
40953;SDS011;26686;50.130;8.710;2023-04-21T19:07:00;3.42;;;2.78;;
40953;SDS011;26686;50.130;8.710;2023-04-21T19:12:02;4.15;;;3.17;;
40953;SDS011;26686;50.130;8.710;2023-04-21T19:17:04;2.85;;;2.50;;
40953;SDS011;26686;50.130;8.710;2023-04-21T19:22:06;3.75;;;3.30;;
40953;SDS011;26686;50.130;8.710;2023-04-21T19:27:08;5.82;;;5.22;;
40953;SDS011;26686;50.130;8.710;2023-04-21T19:32:10;3.78;;;3.38;;
40953;SDS011;26686;50.130;8.710;2023-04-21T19:37:12;4.38;;;3.83;;
40953;SDS011;26686;50.130;8.710;2023-04-21T19:42:14;4.32;;;3.92;;
40953;SDS011;26686;50.130;8.710;2023-04-21T19:47:15;6.88;;;5.43;;
40953;SDS011;26686;50.130;8.710;2023-04-21T19:52:19;4.75;;;4.25;;
40953;SDS011;26686;50.130;8.710;2023-04-21T19:57:21;5.03;;;4.63;;
40953;SDS011;26686;50.130;8.710;2023-04-21T20:02:23;4.55;;;3.80;;
40953;SDS011;26686;50.130;8.710;2023-04-21T20:07:25;4.88;;;4.43;;
40953;SDS011;26686;50.130;8.710;2023-04-21T20:12:26;5.18;;;4.45;;
40953;SDS011;26686;50.130;8.710;2023-04-21T20:17:28;5.25;;;4.70;;
40953;SDS011;26686;50.130;8.710;2023-04-21T20:22:31;7.85;;;5.85;;
40953;SDS011;26686;50.130;8.710;2023-04-21T20:27:33;6.68;;;5.82;;
40953;SDS011;26686;50.130;8.710;2023-04-21T20:32:34;10.98;;;5.43;;
40953;SDS011;26686;50.130;8.710;2023-04-21T20:37:36;6.28;;;4.60;;
40953;SDS011;26686;50.130;8.710;2023-04-21T20:42:38;4.45;;;3.80;;
40953;SDS011;26686;50.130;8.710;2023-04-21T20:47:39;4.50;;;4.05;;
40953;SDS011;26686;50.130;8.710;2023-04-21T20:52:41;7.55;;;4.65;;
40953;SDS011;26686;50.130;8.710;2023-04-21T20:57:43;8.13;;;4.75;;
40953;SDS011;26686;50.130;8.710;2023-04-21T21:02:44;4.88;;;3.80;;
40953;SDS011;26686;50.130;8.710;2023-04-21T21:07:46;4.63;;;3.47;;
40953;SDS011;26686;50.130;8.710;2023-04-21T21:12:48;4.45;;;4.05;;
40953;SDS011;26686;50.130;8.710;2023-04-21T21:17:49;4.95;;;4.30;;
40953;SDS011;26686;50.130;8.710;2023-04-21T21:22:51;5.47;;;4.57;;
40953;SDS011;26686;50.130;8.710;2023-04-21T21:27:52;5.70;;;4.85;;
40953;SDS011;26686;50.130;8.710;2023-04-21T21:32:53;5.45;;;4.90;;
40953;SDS011;26686;50.130;8.710;2023-04-21T21:37:56;4.95;;;4.40;;
40953;SDS011;26686;50.130;8.710;2023-04-21T21:42:57;5.40;;;4.90;;
40953;SDS011;26686;50.130;8.710;2023-04-21T21:53:03;6.30;;;4.60;;
40953;SDS011;26686;50.130;8.710;2023-04-21T21:58:05;6.75;;;5.60;;
40953;SDS011;26686;50.130;8.710;2023-04-21T22:03:06;5.55;;;5.05;;
40953;SDS011;26686;50.130;8.710;2023-04-21T22:08:08;6.57;;;5.72;;
40953;SDS011;26686;50.130;8.710;2023-04-21T22:13:12;5.93;;;5.15;;
40953;SDS011;26686;50.130;8.710;2023-04-21T22:18:14;5.72;;;5.18;;
40953;SDS011;26686;50.130;8.710;2023-04-21T22:23:18;6.20;;;5.60;;
40953;SDS011;26686;50.130;8.710;2023-04-21T22:28:21;5.75;;;5.20;;
40953;SDS011;26686;50.130;8.710;2023-04-21T22:33:23;6.50;;;4.75;;
40953;SDS011;26686;50.130;8.710;2023-04-21T22:38:24;6.63;;;5.85;;
40953;SDS011;26686;50.130;8.710;2023-04-21T22:43:26;6.70;;;6.00;;
40953;SDS011;26686;50.130;8.710;2023-04-21T22:48:27;7.85;;;5.95;;
40953;SDS011;26686;50.130;8.710;2023-04-21T22:53:30;7.30;;;5.97;;
40953;SDS011;26686;50.130;8.710;2023-04-21T22:58:31;6.20;;;5.57;;
40953;SDS011;26686;50.130;8.710;2023-04-21T23:03:33;9.27;;;6.53;;
40953;SDS011;26686;50.130;8.710;2023-04-21T23:08:37;7.60;;;5.88;;
40953;SDS011;26686;50.130;8.710;2023-04-21T23:13:39;5.78;;;5.18;;
40953;SDS011;26686;50.130;8.710;2023-04-21T23:18:41;6.30;;;5.03;;
40953;SDS011;26686;50.130;8.710;2023-04-21T23:23:42;6.45;;;5.65;;
40953;SDS011;26686;50.130;8.710;2023-04-21T23:28:44;6.78;;;5.38;;
40953;SDS011;26686;50.130;8.710;2023-04-21T23:33:45;7.07;;;5.47;;
40953;SDS011;26686;50.130;8.710;2023-04-21T23:38:47;6.35;;;5.68;;
40953;SDS011;26686;50.130;8.710;2023-04-21T23:43:49;5.95;;;5.10;;
40953;SDS011;26686;50.130;8.710;2023-04-21T23:48:50;6.43;;;5.32;;
40953;SDS011;26686;50.130;8.710;2023-04-21T23:53:52;6.22;;;5.53;;
40953;SDS011;26686;50.130;8.710;2023-04-21T23:58:53;7.28;;;5.93;;
